Time;durP1;ratioP1;P1;durP2;ratioP2;P2;SDS_P1;SDS_P2;PMS_P1;PMS_P2;Temp;Humidity;BMP_temperature;BMP_pressure;BME280_temperature;BME280_humidity;BME280_pressure;Samples;Min_cycle;Max_cycle;Signal;HPM_P1;HPM_P2
2021/04/25 00:01:40;;;;;;;444.65;257.05;;;;;;;;;;5047146;28;20486;-76
2021/04/25 00:04:09;;;;;;;431.58;242.30;;;;;;;;;;5034740;28;20091;-76
2021/04/25 00:06:35;;;;;;;451.08;261.80;;;;;;;;;;5039953;28;20044;-77
2021/04/25 00:09:00;;;;;;;429.35;245.90;;;;;;;;;;5032221;28;20029;-76
2021/04/25 00:11:26;;;;;;;448.33;263.90;;;;;;;;;;5064437;28;20039;-75
2021/04/25 00:13:52;;;;;;;452.88;251.07;;;;;;;;;;5043020;28;20025;-77
2021/04/25 00:16:18;;;;;;;412.63;240.25;;;;;;;;;;5064052;28;20136;-76
2021/04/25 00:18:44;;;;;;;414.45;247.70;;;;;;;;;;5045210;28;20499;-76
2021/04/25 00:21:11;;;;;;;411.83;246.60;;;;;;;;;;5040310;28;20394;-76
2021/04/25 00:23:37;;;;;;;415.67;246.73;;;;;;;;;;5040230;28;20124;-76
2021/04/25 00:26:04;;;;;;;424.83;252.60;;;;;;;;;;5033048;28;21953;-75
2021/04/25 00:28:30;;;;;;;424.55;257.05;;;;;;;;;;5043048;28;20016;-76
2021/04/25 00:30:56;;;;;;;424.70;249.07;;;;;;;;;;5041025;28;20086;-76
2021/04/25 00:33:22;;;;;;;422.00;250.95;;;;;;;;;;5048867;28;20029;-75
2021/04/25 00:35:48;;;;;;;425.05;246.35;;;;;;;;;;5047380;28;20564;-76
2021/04/25 00:38:14;;;;;;;415.55;244.45;;;;;;;;;;5046044;28;20032;-76
2021/04/25 00:40:40;;;;;;;419.00;232.32;;;;;;;;;;5036803;28;20021;-77
2021/04/25 00:43:06;;;;;;;420.75;247.90;;;;;;;;;;5044830;28;20026;-76
2021/04/25 00:45:32;;;;;;;423.42;244.80;;;;;;;;;;5034465;28;20600;-77
2021/04/25 00:47:58;;;;;;;422.80;241.88;;;;;;;;;;5044284;28;20029;-76
2021/04/25 00:50:26;;;;;;;428.60;246.95;;;;;;;;;;5038881;28;20025;-76
2021/04/25 00:52:54;;;;;;;430.27;250.10;;;;;;;;;;5045532;28;20025;-76
2021/04/25 00:55:21;;;;;;;428.10;245.68;;;;;;;;;;5034190;28;20064;-75
2021/04/25 00:57:47;;;;;;;472.23;255.27;;;;;;;;;;5034280;28;20421;-76
2021/04/25 01:00:14;;;;;;;437.15;251.10;;;;;;;;;;5041866;28;20379;-78
2021/04/25 01:02:40;;;;;;;442.52;248.75;;;;;;;;;;5048882;28;20029;-77
2021/04/25 01:05:07;;;;;;;445.10;253.77;;;;;;;;;;5041756;28;20029;-77
2021/04/25 01:07:33;;;;;;;421.58;245.32;;;;;;;;;;5044843;28;20059;-77
2021/04/25 01:09:59;;;;;;;422.67;233.05;;;;;;;;;;5043431;28;20069;-77
2021/04/25 01:12:25;;;;;;;421.65;236.20;;;;;;;;;;5038935;28;20025;-77
2021/04/25 01:14:51;;;;;;;437.48;248.02;;;;;;;;;;5042985;28;20033;-76
2021/04/25 01:17:18;;;;;;;428.08;234.35;;;;;;;;;;5043473;28;20029;-77
2021/04/25 01:19:44;;;;;;;423.92;240.43;;;;;;;;;;5040596;28;20029;-77
2021/04/25 01:22:10;;;;;;;426.38;240.50;;;;;;;;;;5048627;28;20111;-76
2021/04/25 01:24:36;;;;;;;430.40;245.20;;;;;;;;;;5039214;28;20123;-76
2021/04/25 01:27:02;;;;;;;444.83;251.32;;;;;;;;;;5046714;28;20067;-76
2021/04/25 01:29:28;;;;;;;427.90;243.45;;;;;;;;;;5047923;28;20044;-77
2021/04/25 01:31:54;;;;;;;424.50;248.70;;;;;;;;;;5052577;28;20439;-76
2021/04/25 01:34:20;;;;;;;423.38;239.63;;;;;;;;;;5048394;28;20071;-77
2021/04/25 01:36:46;;;;;;;433.45;249.70;;;;;;;;;;5048331;28;20080;-77
2021/04/25 01:39:12;;;;;;;423.55;237.15;;;;;;;;;;5056271;28;20072;-75
2021/04/25 01:41:38;;;;;;;424.58;238.90;;;;;;;;;;5059943;28;20451;-76
2021/04/25 01:44:04;;;;;;;422.63;238.88;;;;;;;;;;5039032;28;20037;-76
2021/04/25 01:46:30;;;;;;;437.52;251.75;;;;;;;;;;5047413;28;20056;-76
2021/04/25 01:48:56;;;;;;;479.88;256.75;;;;;;;;;;5047450;28;20067;-77
2021/04/25 01:51:22;;;;;;;447.48;257.60;;;;;;;;;;5038322;28;20071;-77
2021/04/25 01:53:48;;;;;;;488.23;260.95;;;;;;;;;;5045873;28;20471;-77
2021/04/25 01:56:14;;;;;;;445.92;251.45;;;;;;;;;;5041806;28;20029;-76
2021/04/25 01:58:40;;;;;;;436.00;252.25;;;;;;;;;;5039020;28;20040;-76
2021/04/25 02:01:05;;;;;;;432.52;251.20;;;;;;;;;;5038737;28;20448;-77
2021/04/25 02:03:31;;;;;;;435.35;255.60;;;;;;;;;;5042344;28;20386;-76
2021/04/25 02:05:57;;;;;;;440.63;252.35;;;;;;;;;;5046866;28;20469;-76
2021/04/25 02:08:24;;;;;;;429.38;251.45;;;;;;;;;;5045108;28;20033;-77
2021/04/25 02:10:51;;;;;;;433.67;253.75;;;;;;;;;;5030019;28;20574;-76
2021/04/25 02:13:19;;;;;;;430.92;252.75;;;;;;;;;;5045472;28;20029;-76
2021/04/25 02:15:45;;;;;;;433.23;247.10;;;;;;;;;;5044007;28;20544;-77
2021/04/25 02:18:11;;;;;;;434.17;245.80;;;;;;;;;;5043841;28;20128;-76
2021/04/25 02:20:38;;;;;;;429.30;245.70;;;;;;;;;;5040312;28;20024;-77
2021/04/25 02:23:04;;;;;;;434.40;244.70;;;;;;;;;;5043913;28;20511;-76
2021/04/25 02:25:30;;;;;;;431.17;249.88;;;;;;;;;;5050383;28;20120;-77
2021/04/25 02:27:57;;;;;;;445.65;255.10;;;;;;;;;;5039946;28;20146;-76
2021/04/25 02:30:28;;;;;;;441.20;260.80;;;;;;;;;;5037124;28;20075;-77
2021/04/25 02:32:54;;;;;;;445.20;248.40;;;;;;;;;;5047151;28;20118;-77
2021/04/25 02:35:21;;;;;;;439.67;252.73;;;;;;;;;;5047070;28;20025;-76
2021/04/25 02:37:47;;;;;;;447.00;257.67;;;;;;;;;;5041368;28;20017;-78
2021/04/25 02:40:15;;;;;;;472.35;260.92;;;;;;;;;;5038189;28;20073;-76
2021/04/25 02:42:42;;;;;;;509.88;277.77;;;;;;;;;;5036177;28;20112;-76
2021/04/25 02:45:14;;;;;;;499.73;268.33;;;;;;;;;;5036075;28;20363;-77
2021/04/25 02:47:40;;;;;;;484.20;265.33;;;;;;;;;;5039562;28;20036;-76
2021/04/25 02:50:07;;;;;;;530.65;276.40;;;;;;;;;;5045901;28;20112;-77
2021/04/25 02:52:32;;;;;;;442.30;243.75;;;;;;;;;;5046389;28;20021;-77
2021/04/25 02:54:58;;;;;;;446.70;257.67;;;;;;;;;;5051261;28;20056;-77
2021/04/25 02:57:24;;;;;;;439.42;249.73;;;;;;;;;;5045134;28;20108;-77
2021/04/25 02:59:50;;;;;;;440.92;253.82;;;;;;;;;;5042370;28;20024;-76
2021/04/25 03:02:16;;;;;;;437.25;248.68;;;;;;;;;;5045067;28;20129;-76
2021/04/25 03:04:42;;;;;;;444.35;262.88;;;;;;;;;;5039198;28;20025;-77
2021/04/25 03:07:08;;;;;;;445.38;254.10;;;;;;;;;;5037650;28;20120;-76
2021/04/25 03:09:34;;;;;;;436.98;248.43;;;;;;;;;;5033113;28;20025;-77
2021/04/25 03:12:00;;;;;;;437.33;252.98;;;;;;;;;;5045056;28;20119;-76
2021/04/25 03:14:26;;;;;;;447.85;262.58;;;;;;;;;;5034209;28;20045;-76
2021/04/25 03:16:52;;;;;;;437.67;252.40;;;;;;;;;;5057901;28;20103;-75
2021/04/25 03:19:18;;;;;;;442.83;254.27;;;;;;;;;;5043941;28;20760;-77
2021/04/25 03:21:44;;;;;;;443.13;265.58;;;;;;;;;;5037989;28;20044;-76
2021/04/25 03:24:10;;;;;;;436.33;254.25;;;;;;;;;;5058982;28;20028;-77
2021/04/25 03:26:36;;;;;;;437.45;259.35;;;;;;;;;;5033073;28;20663;-77
2021/04/25 03:29:02;;;;;;;430.65;243.82;;;;;;;;;;5044437;28;20026;-77
2021/04/25 03:31:28;;;;;;;434.83;246.88;;;;;;;;;;5044161;28;20112;-77
2021/04/25 03:33:54;;;;;;;438.33;258.95;;;;;;;;;;5047500;28;20120;-76
2021/04/25 03:36:20;;;;;;;433.42;250.32;;;;;;;;;;5042472;28;20025;-77
2021/04/25 03:38:46;;;;;;;440.13;257.92;;;;;;;;;;5038002;28;20117;-77
2021/04/25 03:41:12;;;;;;;451.60;262.38;;;;;;;;;;5045552;28;20060;-77
2021/04/25 03:43:38;;;;;;;440.52;258.98;;;;;;;;;;5041125;28;20037;-76
2021/04/25 03:46:04;;;;;;;443.95;262.40;;;;;;;;;;5045814;28;20041;-76
2021/04/25 03:48:30;;;;;;;448.88;261.75;;;;;;;;;;5043922;28;20045;-76
2021/04/25 03:50:55;;;;;;;442.55;254.05;;;;;;;;;;5044642;28;20044;-76
2021/04/25 03:53:21;;;;;;;447.30;258.70;;;;;;;;;;5040335;28;20049;-76
2021/04/25 03:55:47;;;;;;;445.40;259.00;;;;;;;;;;5041320;28;20577;-75
2021/04/25 03:58:13;;;;;;;449.83;263.13;;;;;;;;;;5036917;28;20029;-77
2021/04/25 04:00:39;;;;;;;460.38;275.52;;;;;;;;;;5044289;28;20028;-77
2021/04/25 04:03:05;;;;;;;459.13;269.77;;;;;;;;;;5048943;28;20474;-77
2021/04/25 04:05:31;;;;;;;467.88;269.40;;;;;;;;;;5045466;28;20036;-76
2021/04/25 04:07:57;;;;;;;438.90;248.05;;;;;;;;;;5042860;28;20478;-76
2021/04/25 04:10:23;;;;;;;442.08;261.38;;;;;;;;;;5042575;28;20021;-76
2021/04/25 04:12:49;;;;;;;437.85;257.73;;;;;;;;;;5043548;28;20022;-75
2021/04/25 04:15:15;;;;;;;434.15;258.52;;;;;;;;;;5049893;28;20026;-76
2021/04/25 04:17:41;;;;;;;440.15;262.52;;;;;;;;;;5056369;28;20104;-75
2021/04/25 04:20:08;;;;;;;445.42;261.50;;;;;;;;;;5046122;28;20986;-75
2021/04/25 04:22:34;;;;;;;441.35;256.85;;;;;;;;;;5039690;28;20037;-75
2021/04/25 04:25:00;;;;;;;441.38;258.13;;;;;;;;;;5038215;28;20025;-75
2021/04/25 04:27:26;;;;;;;436.30;250.60;;;;;;;;;;5047399;28;20033;-75
2021/04/25 04:29:52;;;;;;;443.85;259.35;;;;;;;;;;5040736;28;20562;-76
2021/04/25 04:32:18;;;;;;;446.95;264.60;;;;;;;;;;5057825;28;20025;-76
2021/04/25 04:34:44;;;;;;;458.67;267.55;;;;;;;;;;5045267;28;20116;-75
2021/04/25 04:37:10;;;;;;;533.97;294.15;;;;;;;;;;5044584;28;20029;-77
2021/04/25 04:39:36;;;;;;;497.02;275.85;;;;;;;;;;5050996;28;20108;-76
2021/04/25 04:42:02;;;;;;;545.78;285.77;;;;;;;;;;5045829;28;20053;-75
2021/04/25 04:44:28;;;;;;;555.28;305.33;;;;;;;;;;5046632;28;20063;-77
2021/04/25 04:46:54;;;;;;;518.75;276.95;;;;;;;;;;5036894;28;20075;-75
2021/04/25 04:49:20;;;;;;;505.17;281.88;;;;;;;;;;5047886;28;20089;-75
2021/04/25 04:51:46;;;;;;;498.55;281.50;;;;;;;;;;5047041;28;20021;-76
2021/04/25 04:54:12;;;;;;;487.85;278.77;;;;;;;;;;5046120;28;20046;-76
2021/04/25 04:56:38;;;;;;;472.13;264.35;;;;;;;;;;5040412;28;21227;-76
2021/04/25 04:59:04;;;;;;;479.20;270.27;;;;;;;;;;5031624;28;20048;-75
2021/04/25 05:01:30;;;;;;;479.95;272.35;;;;;;;;;;5034094;28;20025;-75
2021/04/25 05:03:56;;;;;;;491.10;272.30;;;;;;;;;;5046982;28;20021;-75
2021/04/25 05:06:22;;;;;;;480.67;270.98;;;;;;;;;;5041443;28;20037;-76
2021/04/25 05:08:48;;;;;;;483.13;270.92;;;;;;;;;;5044470;28;20841;-76
2021/04/25 05:11:14;;;;;;;491.80;272.10;;;;;;;;;;5033692;28;20033;-75
2021/04/25 05:13:40;;;;;;;497.08;275.92;;;;;;;;;;5044085;28;20452;-76
2021/04/25 05:16:06;;;;;;;496.17;278.92;;;;;;;;;;5051148;28;20026;-77
2021/04/25 05:18:32;;;;;;;506.90;285.00;;;;;;;;;;5042364;28;20104;-78
2021/04/25 05:20:58;;;;;;;490.63;271.05;;;;;;;;;;5045370;28;20113;-76
2021/04/25 05:23:24;;;;;;;499.48;273.88;;;;;;;;;;5041005;28;20044;-76
2021/04/25 05:25:50;;;;;;;496.02;273.50;;;;;;;;;;5040472;28;20045;-75
2021/04/25 05:28:16;;;;;;;497.98;280.67;;;;;;;;;;5047625;28;20373;-76
2021/04/25 05:30:42;;;;;;;539.20;303.27;;;;;;;;;;5048822;28;20072;-76
2021/04/25 05:33:08;;;;;;;551.33;304.38;;;;;;;;;;5047509;28;20025;-76
2021/04/25 05:35:34;;;;;;;499.95;276.58;;;;;;;;;;5034791;28;20061;-76
2021/04/25 05:38:00;;;;;;;499.55;281.92;;;;;;;;;;5044380;28;20043;-76
2021/04/25 05:40:26;;;;;;;504.83;276.45;;;;;;;;;;5051004;28;20017;-76
2021/04/25 05:42:52;;;;;;;466.92;266.15;;;;;;;;;;5044170;28;20026;-76
2021/04/25 05:45:21;;;;;;;464.40;270.35;;;;;;;;;;5049683;28;20026;-76
2021/04/25 05:47:57;;;;;;;475.75;284.00;;;;;;;;;;5041415;28;20020;-76
2021/04/25 05:50:23;;;;;;;461.83;271.98;;;;;;;;;;5030314;28;20025;-75
2021/04/25 05:52:50;;;;;;;460.63;268.45;;;;;;;;;;5046715;28;20029;-76
2021/04/25 05:55:16;;;;;;;457.58;273.63;;;;;;;;;;5032607;28;20195;-77
2021/04/25 05:57:42;;;;;;;470.58;277.70;;;;;;;;;;5042381;28;20024;-76
2021/04/25 06:00:09;;;;;;;468.67;279.42;;;;;;;;;;5053825;28;20041;-77
2021/04/25 06:02:35;;;;;;;472.13;284.98;;;;;;;;;;5038601;28;20032;-75
2021/04/25 06:05:01;;;;;;;471.92;274.10;;;;;;;;;;5045928;28;20041;-75
2021/04/25 06:07:27;;;;;;;477.20;274.73;;;;;;;;;;5046399;28;20029;-75
2021/04/25 06:09:53;;;;;;;484.15;283.80;;;;;;;;;;5038745;28;20094;-76
2021/04/25 06:12:19;;;;;;;476.77;277.00;;;;;;;;;;5043439;28;20600;-76
2021/04/25 06:14:45;;;;;;;478.92;278.80;;;;;;;;;;5041160;28;20021;-75
2021/04/25 06:17:11;;;;;;;476.13;271.20;;;;;;;;;;5045341;28;20021;-76
2021/04/25 06:19:37;;;;;;;490.35;285.13;;;;;;;;;;5038332;28;20108;-78
2021/04/25 06:22:08;;;;;;;479.25;273.30;;;;;;;;;;5045763;28;20056;-76
2021/04/25 06:24:34;;;;;;;494.33;275.13;;;;;;;;;;5046772;28;20076;-76
2021/04/25 06:27:02;;;;;;;474.23;273.48;;;;;;;;;;5044042;28;20466;-76
2021/04/25 06:29:29;;;;;;;483.77;277.63;;;;;;;;;;5031489;28;20084;-76
2021/04/25 06:31:55;;;;;;;489.80;275.27;;;;;;;;;;5041440;28;20108;-75
2021/04/25 06:34:21;;;;;;;490.13;282.60;;;;;;;;;;5044073;28;20037;-77
2021/04/25 06:36:47;;;;;;;494.05;277.00;;;;;;;;;;5036451;28;20022;-77
2021/04/25 06:39:13;;;;;;;476.70;274.17;;;;;;;;;;5042481;28;20032;-75
2021/04/25 06:41:39;;;;;;;480.08;271.90;;;;;;;;;;5047305;28;20439;-77
2021/04/25 06:44:06;;;;;;;482.30;278.02;;;;;;;;;;5038847;28;20413;-76
2021/04/25 06:46:32;;;;;;;483.67;267.75;;;;;;;;;;5031266;28;20033;-76
2021/04/25 06:48:58;;;;;;;483.55;269.42;;;;;;;;;;5033850;28;20025;-76
2021/04/25 06:51:25;;;;;;;502.05;290.35;;;;;;;;;;5032214;28;20116;-77
2021/04/25 06:53:51;;;;;;;489.33;282.52;;;;;;;;;;5034291;28;20136;-76
2021/04/25 06:56:17;;;;;;;489.77;273.42;;;;;;;;;;5049408;28;20100;-77
2021/04/25 06:58:43;;;;;;;497.27;286.88;;;;;;;;;;5054557;28;20026;-76
2021/04/25 07:01:10;;;;;;;500.17;291.08;;;;;;;;;;5034486;28;20029;-76
2021/04/25 07:03:36;;;;;;;501.23;288.08;;;;;;;;;;5043706;28;20056;-76
2021/04/25 07:06:02;;;;;;;499.33;280.52;;;;;;;;;;5044674;28;20048;-76
2021/04/25 07:08:28;;;;;;;493.35;285.38;;;;;;;;;;5032957;28;20079;-75
2021/04/25 07:10:55;;;;;;;488.95;278.85;;;;;;;;;;5037351;28;20034;-76
2021/04/25 07:13:21;;;;;;;497.27;289.80;;;;;;;;;;5037716;28;20105;-76
2021/04/25 07:15:47;;;;;;;496.17;283.10;;;;;;;;;;5041579;28;20461;-75
2021/04/25 07:18:14;;;;;;;498.05;284.83;;;;;;;;;;5049136;28;20359;-75
2021/04/25 07:20:40;;;;;;;509.13;290.58;;;;;;;;;;5065936;28;20029;-76
2021/04/25 07:23:06;;;;;;;518.63;294.92;;;;;;;;;;5048417;28;20021;-76
2021/04/25 07:25:32;;;;;;;516.13;288.08;;;;;;;;;;5048266;28;20082;-76
2021/04/25 07:27:58;;;;;;;524.97;298.75;;;;;;;;;;5039182;28;20044;-76
2021/04/25 07:30:24;;;;;;;526.92;303.10;;;;;;;;;;5048077;28;20025;-76
2021/04/25 07:32:50;;;;;;;515.50;288.08;;;;;;;;;;5061087;28;20025;-77
2021/04/25 07:35:16;;;;;;;516.70;296.88;;;;;;;;;;5048784;28;20116;-76
2021/04/25 07:37:44;;;;;;;522.20;307.08;;;;;;;;;;5041328;28;20048;-77
2021/04/25 07:40:10;;;;;;;518.63;299.13;;;;;;;;;;5043693;28;20053;-76
2021/04/25 07:42:36;;;;;;;514.22;291.48;;;;;;;;;;5049175;28;20037;-77
2021/04/25 07:45:04;;;;;;;518.53;296.65;;;;;;;;;;5042017;28;20028;-76
2021/04/25 07:47:30;;;;;;;517.03;303.90;;;;;;;;;;5051030;28;20037;-77
2021/04/25 07:49:55;;;;;;;511.33;290.60;;;;;;;;;;5050831;28;20040;-76
2021/04/25 07:52:22;;;;;;;538.28;326.85;;;;;;;;;;5066324;28;20447;-76
2021/04/25 07:54:47;;;;;;;566.58;336.73;;;;;;;;;;5048217;28;20045;-77
2021/04/25 07:57:13;;;;;;;547.95;314.90;;;;;;;;;;5059614;28;20549;-77
2021/04/25 07:59:39;;;;;;;550.47;319.10;;;;;;;;;;5050531;28;20098;-77
2021/04/25 08:02:05;;;;;;;795.20;493.30;;;;;;;;;;5046059;28;20040;-78
2021/04/25 08:04:31;;;;;;;719.03;377.48;;;;;;;;;;5051660;28;20021;-77
2021/04/25 08:06:57;;;;;;;523.83;310.52;;;;;;;;;;5049293;28;20043;-76
2021/04/25 08:09:23;;;;;;;521.97;308.10;;;;;;;;;;5050991;28;20426;-78
2021/04/25 08:11:49;;;;;;;519.65;303.48;;;;;;;;;;5050783;28;20029;-76
2021/04/25 08:14:15;;;;;;;828.80;480.70;;;;;;;;;;5051703;28;20097;-76
2021/04/25 08:16:41;;;;;;;705.45;409.25;;;;;;;;;;5050124;28;20025;-77
2021/04/25 08:19:08;;;;;;;713.05;326.30;;;;;;;;;;5047546;28;20459;-75
2021/04/25 08:21:34;;;;;;;711.17;422.23;;;;;;;;;;5049559;28;20064;-76
2021/04/25 08:24:00;;;;;;;697.88;406.60;;;;;;;;;;5048041;28;20104;-77
2021/04/25 08:26:26;;;;;;;672.67;391.92;;;;;;;;;;5047344;28;20044;-76
2021/04/25 08:28:52;;;;;;;727.50;430.70;;;;;;;;;;5050873;28;20025;-76
2021/04/25 08:31:18;;;;;;;637.70;365.88;;;;;;;;;;5049654;28;20076;-76
2021/04/25 08:33:44;;;;;;;610.63;350.92;;;;;;;;;;5050377;28;20452;-76
2021/04/25 08:36:10;;;;;;;657.13;382.15;;;;;;;;;;5050849;28;20521;-76
2021/04/25 08:38:36;;;;;;;674.83;395.73;;;;;;;;;;5048138;28;20191;-76
2021/04/25 08:41:04;;;;;;;666.65;383.77;;;;;;;;;;5050315;28;20116;-76
2021/04/25 08:43:31;;;;;;;663.10;398.75;;;;;;;;;;5050968;28;20031;-76
2021/04/25 08:45:58;;;;;;;642.72;380.05;;;;;;;;;;5051798;28;20119;-76
2021/04/25 08:48:26;;;;;;;647.70;373.10;;;;;;;;;;5050123;28;20443;-78
2021/04/25 08:50:52;;;;;;;663.88;393.45;;;;;;;;;;5051574;28;20112;-77
2021/04/25 08:53:21;;;;;;;626.45;368.45;;;;;;;;;;5048537;28;20463;-77
2021/04/25 08:55:48;;;;;;;631.88;372.90;;;;;;;;;;5048877;28;20661;-77
2021/04/25 08:58:14;;;;;;;638.97;377.50;;;;;;;;;;5049625;28;20029;-76
2021/04/25 09:00:41;;;;;;;644.40;381.52;;;;;;;;;;5049551;28;20455;-76
2021/04/25 09:03:07;;;;;;;663.72;399.98;;;;;;;;;;5048369;28;20029;-76
2021/04/25 09:05:33;;;;;;;680.55;411.48;;;;;;;;;;5063976;28;20055;-77
2021/04/25 09:08:01;;;;;;;669.05;399.98;;;;;;;;;;5062142;28;20090;-77
2021/04/25 09:10:30;;;;;;;643.50;385.75;;;;;;;;;;5049436;28;20025;-77
2021/04/25 09:12:57;;;;;;;673.83;408.60;;;;;;;;;;5051542;28;20082;-78
2021/04/25 09:15:25;;;;;;;733.95;457.38;;;;;;;;;;5051796;28;20394;-78
2021/04/25 09:17:52;;;;;;;899.05;620.65;;;;;;;;;;5050151;28;20025;-78
2021/04/25 09:20:19;;;;;;;634.30;391.05;;;;;;;;;;5048678;28;20140;-79
2021/04/25 09:22:46;;;;;;;638.13;393.60;;;;;;;;;;5065975;28;20032;-78
2021/04/25 09:25:14;;;;;;;642.78;395.83;;;;;;;;;;5048980;28;20325;-78
2021/04/25 09:27:41;;;;;;;639.47;389.88;;;;;;;;;;5050426;28;20120;-77
2021/04/25 09:30:08;;;;;;;620.50;369.65;;;;;;;;;;5057642;28;20025;-78
2021/04/25 09:32:34;;;;;;;588.83;363.70;;;;;;;;;;5062240;28;20710;-78
2021/04/25 09:35:07;;;;;;;585.55;352.92;;;;;;;;;;5048278;28;20064;-79
2021/04/25 09:37:37;;;;;;;598.88;362.95;;;;;;;;;;5065783;28;20064;-85
2021/04/25 09:40:08;;;;;;;594.33;368.85;;;;;;;;;;5045253;28;20435;-77
2021/04/25 09:42:53;;;;;;;603.55;365.08;;;;;;;;;;5045926;28;20033;-76
2021/04/25 09:45:22;;;;;;;597.72;372.10;;;;;;;;;;5042147;28;20961;-76
2021/04/25 09:47:48;;;;;;;602.25;375.15;;;;;;;;;;5044795;28;20045;-77
2021/04/25 09:50:19;;;;;;;585.70;359.15;;;;;;;;;;5045872;28;20436;-77
2021/04/25 09:52:49;;;;;;;596.38;365.52;;;;;;;;;;5046820;28;20083;-77
2021/04/25 09:55:16;;;;;;;601.15;378.17;;;;;;;;;;5050183;28;20033;-76
2021/04/25 09:57:42;;;;;;;594.97;384.90;;;;;;;;;;5048281;28;20037;-76
2021/04/25 10:00:09;;;;;;;625.70;397.27;;;;;;;;;;5047447;28;20029;-79
2021/04/25 10:02:54;;;;;;;629.88;405.88;;;;;;;;;;5040052;28;20140;-76
2021/04/25 10:05:20;;;;;;;613.35;393.15;;;;;;;;;;5042280;28;20043;-78
2021/04/25 10:07:46;;;;;;;693.42;439.88;;;;;;;;;;5056443;28;20462;-77
2021/04/25 10:10:19;;;;;;;746.22;480.33;;;;;;;;;;5057414;28;20045;-77
2021/04/25 10:12:45;;;;;;;690.05;440.77;;;;;;;;;;5043017;28;20033;-77
2021/04/25 10:15:11;;;;;;;594.28;363.42;;;;;;;;;;5044979;28;20029;-77
2021/04/25 10:17:44;;;;;;;588.13;354.55;;;;;;;;;;5043149;28;21285;-77
2021/04/25 10:20:11;;;;;;;704.05;445.30;;;;;;;;;;5063318;28;20447;-77
2021/04/25 10:22:39;;;;;;;667.08;413.70;;;;;;;;;;5045970;28;20021;-77
2021/04/25 10:25:06;;;;;;;657.88;426.95;;;;;;;;;;5058263;28;20021;-77
2021/04/25 10:27:32;;;;;;;656.40;422.85;;;;;;;;;;5045489;28;20033;-78
2021/04/25 10:30:00;;;;;;;719.33;471.10;;;;;;;;;;5042286;28;20033;-78
2021/04/25 10:32:26;;;;;;;685.80;450.80;;;;;;;;;;5033763;28;20033;-78
2021/04/25 10:35:11;;;;;;;663.72;437.48;;;;;;;;;;5042826;28;20025;-78
2021/04/25 10:37:37;;;;;;;851.38;630.65;;;;;;;;;;5043326;28;20029;-77
2021/04/25 10:40:19;;;;;;;679.63;451.50;;;;;;;;;;5049757;28;20366;-78
2021/04/25 10:43:01;;;;;;;655.80;436.08;;;;;;;;;;5048905;28;20444;-78
2021/04/25 10:45:28;;;;;;;691.85;462.63;;;;;;;;;;5057140;28;20024;-78
2021/04/25 10:48:13;;;;;;;633.92;417.83;;;;;;;;;;5056129;28;20076;-78
2021/04/25 10:50:42;;;;;;;676.55;447.90;;;;;;;;;;5052389;28;20037;-78
2021/04/25 10:53:17;;;;;;;678.60;460.77;;;;;;;;;;5048710;28;20107;-78
2021/04/25 10:55:45;;;;;;;591.72;389.75;;;;;;;;;;5048518;28;20436;-78
2021/04/25 10:58:11;;;;;;;578.40;383.17;;;;;;;;;;5051096;28;20025;-77
2021/04/25 11:00:42;;;;;;;586.72;392.02;;;;;;;;;;5050403;28;20025;-78
2021/04/25 11:03:09;;;;;;;590.65;408.85;;;;;;;;;;5050213;28;20020;-78
2021/04/25 11:05:38;;;;;;;605.05;407.05;;;;;;;;;;5049659;28;20465;-78
2021/04/25 11:08:05;;;;;;;594.85;402.05;;;;;;;;;;5047178;28;20045;-77
2021/04/25 11:10:45;;;;;;;589.25;401.63;;;;;;;;;;5049189;28;20106;-78
2021/04/25 11:13:11;;;;;;;;;;;;;;;;;;5047131;28;20056;-78
2021/04/25 11:15:48;;;;;;;572.30;373.77;;;;;;;;;;5048503;28;19913;-78
2021/04/25 11:18:34;;;;;;;580.30;396.20;;;;;;;;;;5045765;28;20055;-78
2021/04/25 11:20:59;;;;;;;564.50;387.83;;;;;;;;;;5045136;28;20029;-78
2021/04/25 11:23:32;;;;;;;609.22;432.13;;;;;;;;;;5047861;28;20025;-77
2021/04/25 11:25:58;;;;;;;588.08;408.88;;;;;;;;;;5048593;28;20043;-78
2021/04/25 11:29:01;;;;;;;610.63;441.48;;;;;;;;;;5046926;28;20033;-78
2021/04/25 11:31:46;;;;;;;576.50;391.10;;;;;;;;;;4982942;28;20129;-78
2021/04/25 11:34:39;;;;;;;563.95;393.70;;;;;;;;;;5058124;28;20029;-79
2021/04/25 11:37:20;;;;;;;568.00;385.90;;;;;;;;;;5034256;28;20040;-78
2021/04/25 11:39:47;;;;;;;560.15;391.17;;;;;;;;;;5065420;28;20417;-77
2021/04/25 11:42:23;;;;;;;568.67;403.83;;;;;;;;;;5047861;28;20078;-79
2021/04/25 11:44:49;;;;;;;554.15;387.48;;;;;;;;;;5048600;28;20523;-81
2021/04/25 11:47:17;;;;;;;551.67;390.35;;;;;;;;;;5045473;28;20072;-80
2021/04/25 11:49:45;;;;;;;552.08;391.55;;;;;;;;;;5044544;28;20733;-78
2021/04/25 11:52:12;;;;;;;544.25;385.13;;;;;;;;;;5040642;28;20101;-78
2021/04/25 11:54:39;;;;;;;547.45;392.67;;;;;;;;;;5045624;28;20415;-78
2021/04/25 11:57:08;;;;;;;551.70;400.83;;;;;;;;;;5046658;28;20074;-78
2021/04/25 11:59:34;;;;;;;552.03;398.40;;;;;;;;;;5045208;28;20087;-78
2021/04/25 12:02:07;;;;;;;551.45;406.55;;;;;;;;;;5045600;28;20040;-78
2021/04/25 12:04:43;;;;;;;549.80;413.85;;;;;;;;;;5051116;28;20089;-79
2021/04/25 12:07:11;;;;;;;560.70;452.77;;;;;;;;;;5046847;28;20363;-78
2021/04/25 12:09:38;;;;;;;557.45;467.33;;;;;;;;;;5051631;28;20056;-79
2021/04/25 12:12:07;;;;;;;564.15;487.20;;;;;;;;;;5048063;28;20077;-78
2021/04/25 12:14:34;;;;;;;547.38;466.55;;;;;;;;;;5041540;28;20052;-79
2021/04/25 12:17:17;;;;;;;567.83;482.45;;;;;;;;;;5047971;28;20405;-78
2021/04/25 12:19:43;;;;;;;569.88;472.17;;;;;;;;;;5049807;28;20447;-79
2021/04/25 12:22:09;;;;;;;590.47;504.38;;;;;;;;;;5048624;28;20033;-79
2021/04/25 12:24:35;;;;;;;684.95;611.15;;;;;;;;;;5051140;28;20116;-79
2021/04/25 12:27:01;;;;;;;938.35;844.92;;;;;;;;;;5051090;28;20044;-79
2021/04/25 12:29:36;;;;;;;553.13;490.95;;;;;;;;;;5050512;28;20028;-79
2021/04/25 12:32:03;;;;;;;563.33;501.35;;;;;;;;;;5051459;28;20117;-79
2021/04/25 12:34:31;;;;;;;603.38;537.72;;;;;;;;;;5051432;28;20524;-80
2021/04/25 12:36:58;;;;;;;647.15;579.10;;;;;;;;;;5051313;28;20354;-80
2021/04/25 12:39:38;;;;;;;600.65;538.53;;;;;;;;;;5056628;28;20017;-79
2021/04/25 12:42:04;;;;;;;578.58;517.20;;;;;;;;;;5055745;28;20025;-78
2021/04/25 12:44:38;;;;;;;583.08;520.08;;;;;;;;;;5051249;28;20645;-79
2021/04/25 12:47:06;;;;;;;601.25;536.15;;;;;;;;;;5046014;28;20044;-79
2021/04/25 12:49:39;;;;;;;643.30;573.50;;;;;;;;;;5045709;28;20084;-80
2021/04/25 12:52:06;;;;;;;624.10;551.53;;;;;;;;;;5047708;28;20107;-80
2021/04/25 12:54:39;;;;;;;622.42;542.85;;;;;;;;;;5047003;28;20053;-78
2021/04/25 12:57:06;;;;;;;623.33;528.67;;;;;;;;;;5045517;28;20047;-79
2021/04/25 12:59:36;;;;;;;627.63;527.05;;;;;;;;;;5045359;28;20431;-79
2021/04/25 13:02:03;;;;;;;;;;;;;;;;;;5045367;28;20021;-78
2021/04/25 13:04:34;;;;;;;630.60;488.15;;;;;;;;;;5039990;28;19927;-79
2021/04/25 13:07:18;;;;;;;619.28;481.58;;;;;;;;;;5057891;28;20044;-79
2021/04/25 13:09:45;;;;;;;588.20;450.70;;;;;;;;;;5058765;28;20033;-79
2021/04/25 13:12:18;;;;;;;611.90;503.17;;;;;;;;;;5047489;28;20028;-81
2021/04/25 13:14:59;;;;;;;619.10;517.50;;;;;;;;;;5057772;28;20031;-81
2021/04/25 13:17:28;;;;;;;614.67;508.05;;;;;;;;;;5047299;28;20444;-80
2021/04/25 13:19:54;;;;;;;612.45;516.83;;;;;;;;;;5046345;28;20063;-80
2021/04/25 13:22:21;;;;;;;621.75;543.58;;;;;;;;;;5060138;28;20025;-80
2021/04/25 13:24:47;;;;;;;654.05;583.58;;;;;;;;;;5045512;28;20382;-79
2021/04/25 13:27:16;;;;;;;655.15;584.72;;;;;;;;;;5043175;28;20144;-80
2021/04/25 13:29:42;;;;;;;668.85;598.88;;;;;;;;;;5044138;28;20024;-77
2021/04/25 13:32:07;;;;;;;683.97;613.90;;;;;;;;;;5062252;28;20028;-76
2021/04/25 13:34:33;;;;;;;685.22;615.33;;;;;;;;;;5047373;28;20024;-78
2021/04/25 13:36:59;;;;;;;729.05;656.70;;;;;;;;;;5045557;28;20024;-78
2021/04/25 13:39:25;;;;;;;721.67;650.78;;;;;;;;;;5045435;28;20520;-81
2021/04/25 13:41:51;;;;;;;729.63;658.00;;;;;;;;;;5060062;28;20098;-80
2021/04/25 13:44:18;;;;;;;724.55;653.40;;;;;;;;;;5043882;28;20021;-82
2021/04/25 13:46:44;;;;;;;709.72;639.25;;;;;;;;;;5046188;28;20037;-78
2021/04/25 13:49:10;;;;;;;710.92;640.60;;;;;;;;;;5048811;28;20052;-78
2021/04/25 13:51:37;;;;;;;702.28;632.45;;;;;;;;;;5048893;28;20059;-78
2021/04/25 13:54:04;;;;;;;711.75;641.63;;;;;;;;;;5047326;28;20056;-81
2021/04/25 13:56:29;;;;;;;692.55;622.42;;;;;;;;;;5048260;28;20086;-79